Time,TemperatureF,DewpointF,PressureIn,WindDirection,WindDirectionDegrees,WindSpeedMPH,WindSpeedGustMPH,Humidity,HourlyPrecipIn,Conditions,Clouds,dailyrainin,SolarRadiationWatts/m^2,SoftwareType,DateUTC
2013-02-10 00:00:00,16.2,9.1,30.06,WNW,294,15.0,21.0,73,0.00,CLR,,0.00,0.0,WeatherDisplay:10.37,2013-02-10 05:00:00,
2013-02-10 00:05:00,16.3,8.9,30.06,WNW,286,17.3,17.3,72,0.00,CLR,,0.00,0.0,WeatherDisplay:10.37,2013-02-10 05:05:00,
2013-02-10 00:06:00,16.3,8.9,30.07,WNW,296,15.0,15.0,72,0.00,CLR,,0.00,0.0,WeatherDisplay:10.37,2013-02-10 05:06:00,
2013-02-10 00:11:00,16.2,8.4,30.07,ENE,59,13.8,13.8,71,0.00,CLR,,0.00,0.0,WeatherDisplay:10.37,2013-02-10 05:11:00,
2013-02-10 00:16:00,16.2,8.8,30.07,WNW,303,13.8,13.8,72,0.00,CLR,,0.00,0.0,WeatherDisplay:10.37,2013-02-10 05:16:00,
2013-02-10 00:21:00,16.1,8.7,30.08,WNW,291,17.3,17.3,72,0.00,CLR,,0.00,0.0,WeatherDisplay:10.37,2013-02-10 05:21:00,
2013-02-10 00:26:00,16.4,8.9,30.08,WSW,238,16.1,16.1,72,0.00,CLR,,0.00,0.0,WeatherDisplay:10.37,2013-02-10 05:26:00,
2013-02-10 00:31:00,16.4,8.6,30.08,West,272,12.7,12.7,71,0.00,CLR,,0.00,0.0,WeatherDisplay:10.37,2013-02-10 05:31:00,
2013-02-10 00:36:00,16.4,8.6,30.07,WNW,295,21.9,21.9,71,0.00,CLR,,0.00,0.0,WeatherDisplay:10.37,2013-02-10 05:36:00,
2013-02-10 00:41:00,16.6,8.5,30.07,WNW,294,16.1,16.1,70,0.00,CLR,,0.00,0.0,WeatherDisplay:10.37,2013-02-10 05:41:00,
2013-02-10 00:46:00,16.6,8.5,30.07,WNW,302,15.0,15.0,70,0.00,CLR,,0.00,0.0,WeatherDisplay:10.37,2013-02-10 05:46:00,
2013-02-10 00:51:00,16.7,8.3,30.08,West,271,10.4,10.4,69,0.00,CLR,,0.00,0.0,WeatherDisplay:10.37,2013-02-10 05:51:00,
2013-02-10 00:56:00,16.9,8.5,30.08,West,279,5.8,5.8,69,0.00,CLR,,0.00,0.0,WeatherDisplay:10.37,2013-02-10 05:56:00,
2013-02-10 01:01:00,17.0,8.6,30.08,SW,218,6.9,6.9,69,0.00,CLR,,0.00,0.0,WeatherDisplay:10.37,2013-02-10 06:01:00,
2013-02-10 01:06:00,17.0,8.6,30.09,NW,315,15.0,15.0,69,0.00,CLR,,0.00,0.0,WeatherDisplay:10.37,2013-02-10 06:06:00,
2013-02-10 01:11:00,17.3,8.2,30.09,West,277,11.5,11.5,67,0.00,CLR,,0.00,0.0,WeatherDisplay:10.37,2013-02-10 06:11:00,
2013-02-10 01:16:00,17.3,8.2,30.09,WNW,290,12.7,12.7,67,0.00,CLR,,0.00,0.0,WeatherDisplay:10.37,2013-02-10 06:16:00,
2013-02-10 01:22:00,17.3,7.9,30.09,West,272,12.7,12.7,66,0.00,CLR,,0.00,0.0,WeatherDisplay:10.37,2013-02-10 06:22:00,
2013-02-10 01:27:00,17.5,8.1,30.09,West,279,18.0,18.0,66,0.00,CLR,,0.00,0.0,WeatherDisplay:10.37,2013-02-10 06:27:00,
2013-02-10 01:32:00,17.6,7.8,30.09,West,269,9.2,9.2,65,0.00,CLR,,0.00,0.0,WeatherDisplay:10.37,2013-02-10 06:32:00,
2013-02-10 01:37:00,17.4,7.6,30.10,West,268,11.5,11.5,65,0.00,CLR,,0.00,0.0,WeatherDisplay:10.37,2013-02-10 06:37:00,
2013-02-10 01:42:00,17.3,7.9,30.10,WNW,288,8.1,8.1,66,0.00,CLR,,0.00,0.0,WeatherDisplay:10.37,2013-02-10 06:42:00,
2013-02-10 01:47:00,17.1,7.7,30.10,WNW,302,5.8,5.8,66,0.00,CLR,,0.00,0.0,WeatherDisplay:10.37,2013-02-10 06:47:00,
2013-02-10 01:52:00,17.1,7.3,30.11,NW,304,6.9,6.9,65,0.00,CLR,,0.00,0.0,WeatherDisplay:10.37,2013-02-10 06:52:00,
2013-02-10 01:57:00,17.1,7.3,30.11,West,276,12.7,12.7,65,0.00,CLR,,0.00,0.0,WeatherDisplay:10.37,2013-02-10 06:57:00,
2013-02-10 02:02:00,17.0,7.3,30.11,West,273,12.7,12.7,65,0.00,CLR,,0.00,0.0,WeatherDisplay:10.37,2013-02-10 07:02:00,
2013-02-10 02:07:00,16.9,7.2,30.11,WNW,292,10.4,10.4,65,0.00,CLR,,0.00,0.0,WeatherDisplay:10.37,2013-02-10 07:07:00,
2013-02-10 02:12:00,16.8,7.1,30.11,WNW,294,11.5,11.5,65,0.00,CLR,,0.00,0.0,WeatherDisplay:10.37,2013-02-10 07:12:00,
2013-02-10 02:17:00,16.8,7.1,30.11,West,272,11.5,11.5,65,0.00,CLR,,0.00,0.0,WeatherDisplay:10.37,2013-02-10 07:17:00,
2013-02-10 02:22:00,16.7,7.0,30.11,WNW,295,6.9,6.9,65,0.00,CLR,,0.00,0.0,WeatherDisplay:10.37,2013-02-10 07:22:00,
2013-02-10 02:27:00,16.6,6.9,30.11,North,355,1.1,1.1,65,0.00,CLR,,0.00,0.0,WeatherDisplay:10.37,2013-02-10 07:27:00,
2013-02-10 02:32:00,16.6,6.9,30.11,WNW,290,8.1,8.1,65,0.00,CLR,,0.00,0.0,WeatherDisplay:10.37,2013-02-10 07:32:00,
2013-02-10 02:37:00,17.0,6.9,30.10,NNW,330,11.5,11.5,64,0.00,CLR,,0.00,0.0,WeatherDisplay:10.37,2013-02-10 07:37:00,
2013-02-10 02:42:00,17.4,6.9,30.10,WNW,302,17.3,17.3,63,0.00,CLR,,0.00,0.0,WeatherDisplay:10.37,2013-02-10 07:42:00,
2013-02-10 02:47:00,18.1,7.3,30.10,West,279,18.4,18.4,62,0.00,CLR,,0.00,0.0,WeatherDisplay:10.37,2013-02-10 07:47:00,
2013-02-10 02:52:00,18.4,7.2,30.10,WNW,301,24.2,24.2,61,0.00,CLR,,0.00,0.0,WeatherDisplay:10.37,2013-02-10 07:52:00,
2013-02-10 02:57:00,18.4,6.8,30.10,WNW,290,23.0,23.0,60,0.00,CLR,,0.00,0.0,WeatherDisplay:10.37,2013-02-10 07:57:00,
2013-02-10 03:02:00,18.5,6.9,30.10,West,267,19.6,19.6,60,0.00,CLR,,0.00,0.0,WeatherDisplay:10.37,2013-02-10 08:02:00,
2013-02-10 03:07:00,18.5,6.5,30.11,SW,229,15.0,15.0,59,0.00,CLR,,0.00,0.0,WeatherDisplay:10.37,2013-02-10 08:07:00,
2013-02-10 03:12:00,18.6,6.3,30.11,NW,311,19.6,19.6,58,0.00,CLR,,0.00,0.0,WeatherDisplay:10.37,2013-02-10 08:12:00,
2013-02-10 03:17:00,18.5,6.2,30.11,West,271,15.0,15.0,58,0.00,CLR,,0.00,0.0,WeatherDisplay:10.37,2013-02-10 08:17:00,
2013-02-10 03:22:00,18.4,6.1,30.12,WNW,293,11.5,11.5,58,0.00,CLR,,0.00,0.0,WeatherDisplay:10.37,2013-02-10 08:22:00,
2013-02-10 03:27:00,18.1,6.2,30.12,NW,309,12.0,12.0,59,0.00,CLR,,0.00,0.0,WeatherDisplay:10.37,2013-02-10 08:27:00,
2013-02-10 03:32:00,17.9,6.0,30.12,WNW,284,9.2,9.2,59,0.00,CLR,,0.00,0.0,WeatherDisplay:10.37,2013-02-10 08:32:00,
2013-02-10 03:37:00,17.7,5.8,30.13,WNW,302,11.5,11.5,59,0.00,CLR,,0.00,0.0,WeatherDisplay:10.37,2013-02-10 08:37:00,
2013-02-10 03:42:00,17.6,5.3,30.13,NW,309,11.5,11.5,58,0.00,CLR,,0.00,0.0,WeatherDisplay:10.37,2013-02-10 08:42:00,
2013-02-10 03:47:00,17.4,5.1,30.13,WNW,294,11.5,11.5,58,0.00,CLR,,0.00,0.0,WeatherDisplay:10.37,2013-02-10 08:47:00,
2013-02-10 03:52:00,17.2,4.9,30.14,WNW,295,13.8,13.8,58,0.00,CLR,,0.00,0.0,WeatherDisplay:10.37,2013-02-10 08:52:00,
2013-02-10 03:57:00,17.2,4.9,30.14,NW,311,11.5,11.5,58,0.00,CLR,,0.00,0.0,WeatherDisplay:10.37,2013-02-10 08:57:00,
2013-02-10 04:02:00,17.1,4.5,30.14,NW,323,11.5,11.5,57,0.00,CLR,,0.00,0.0,WeatherDisplay:10.37,2013-02-10 09:02:00,
2013-02-10 04:07:00,17.0,4.4,30.14,WNW,303,10.4,10.4,57,0.00,CLR,,0.00,0.0,WeatherDisplay:10.37,2013-02-10 09:07:00,
2013-02-10 04:12:00,17.1,4.5,30.14,WNW,299,10.4,10.4,57,0.00,CLR,,0.00,0.0,WeatherDisplay:10.37,2013-02-10 09:12:00,
2013-02-10 04:17:00,16.8,4.2,30.14,WNW,299,5.8,5.8,57,0.00,CLR,,0.00,0.0,WeatherDisplay:10.37,2013-02-10 09:17:00,
2013-02-10 04:22:00,16.6,4.4,30.14,WNW,290,5.8,5.8,58,0.00,CLR,,0.00,0.0,WeatherDisplay:10.37,2013-02-10 09:22:00,
2013-02-10 04:27:00,16.4,4.6,30.14,WNW,290,4.0,4.0,59,0.00,CLR,,0.00,0.0,WeatherDisplay:10.37,2013-02-10 09:27:00,
2013-02-10 04:32:00,16.2,5.1,30.14,WNW,290,3.5,3.5,61,0.00,CLR,,0.00,0.0,WeatherDisplay:10.37,2013-02-10 09:32:00,
2013-02-10 04:37:00,15.7,5.7,30.14,WNW,290,0.0,0.0,64,0.00,CLR,,0.00,0.0,WeatherDisplay:10.37,2013-02-10 09:37:00,
2013-02-10 04:42:00,15.2,5.2,30.14,WNW,290,0.0,0.0,64,0.00,CLR,,0.00,0.0,WeatherDisplay:10.37,2013-02-10 09:42:00,
2013-02-10 04:47:00,14.6,5.3,30.14,WNW,290,1.0,0.0,66,0.00,CLR,,0.00,0.0,WeatherDisplay:10.37,2013-02-10 09:47:00,
2013-02-10 04:52:00,14.0,4.7,30.15,WNW,290,3.5,3.5,66,0.00,CLR,,0.00,0.0,WeatherDisplay:10.37,2013-02-10 09:52:00,
2013-02-10 04:57:00,13.6,4.0,30.15,WNW,290,0.0,0.0,65,0.00,CLR,,0.00,0.0,WeatherDisplay:10.37,2013-02-10 09:57:00,
2013-02-10 05:02:00,13.3,3.7,30.15,WNW,290,0.0,0.0,65,0.00,CLR,,0.00,0.0,WeatherDisplay:10.37,2013-02-10 10:02:00,
2013-02-10 05:07:00,13.0,3.1,30.16,WNW,290,4.6,4.6,64,0.00,CLR,,0.00,0.0,WeatherDisplay:10.37,2013-02-10 10:07:00,
2013-02-10 05:12:00,12.8,2.9,30.16,WNW,290,1.1,0.0,64,0.00,CLR,,0.00,0.0,WeatherDisplay:10.37,2013-02-10 10:12:00,
2013-02-10 05:17:00,12.7,2.5,30.16,WNW,290,5.0,5.0,63,0.00,CLR,,0.00,0.0,WeatherDisplay:10.37,2013-02-10 10:17:00,
2013-02-10 05:22:00,13.0,2.4,30.17,WNW,290,1.0,1.0,62,0.00,CLR,,0.00,0.0,WeatherDisplay:10.37,2013-02-10 10:22:00,
2013-02-10 05:27:00,13.2,2.6,30.17,WNW,290,3.5,3.5,62,0.00,CLR,,0.00,0.0,WeatherDisplay:10.37,2013-02-10 10:27:00,
2013-02-10 05:32:00,13.5,2.5,30.17,WNW,290,1.0,1.0,61,0.00,CLR,,0.00,0.0,WeatherDisplay:10.37,2013-02-10 10:32:00,
2013-02-10 05:37:00,13.6,3.3,30.17,WNW,290,2.0,2.0,63,0.00,CLR,,0.00,0.0,WeatherDisplay:10.37,2013-02-10 10:37:00,
2013-02-10 05:42:00,13.7,3.8,30.17,WNW,290,0.0,0.0,64,0.00,CLR,,0.00,0.0,WeatherDisplay:10.37,2013-02-10 10:42:00,
2013-02-10 05:47:00,13.6,3.3,30.17,WNW,290,2.3,2.3,63,0.00,CLR,,0.00,0.0,WeatherDisplay:10.37,2013-02-10 10:47:00,
2013-02-10 05:52:00,13.9,3.3,30.19,WNW,290,3.5,3.5,62,0.00,CLR,,0.00,0.0,WeatherDisplay:10.37,2013-02-10 10:52:00,
2013-02-10 05:57:00,14.1,3.8,30.19,WNW,290,0.0,0.0,63,0.00,CLR,,0.00,0.0,WeatherDisplay:10.37,2013-02-10 10:57:00,
2013-02-10 06:02:00,14.0,4.1,30.19,WNW,290,1.0,1.0,64,0.00,CLR,,0.00,0.0,WeatherDisplay:10.37,2013-02-10 11:02:00,
2013-02-10 06:07:00,13.9,4.0,30.19,WNW,290,0.0,0.1,64,0.00,CLR,,0.00,0.0,WeatherDisplay:10.37,2013-02-10 11:07:00,
2013-02-10 06:12:00,13.7,4.4,30.19,WNW,290,2.3,0.0,66,0.00,CLR,,0.00,0.0,WeatherDisplay:10.37,2013-02-10 11:12:00,
2013-02-10 06:17:00,13.4,3.8,30.19,WNW,290,1.1,1.1,65,0.00,CLR,,0.00,0.0,WeatherDisplay:10.37,2013-02-10 11:17:00,
2013-02-10 06:22:00,13.2,4.0,30.20,WNW,290,0.0,0.0,66,0.00,CLR,,0.00,0.0,WeatherDisplay:10.37,2013-02-10 11:22:00,
2013-02-10 06:27:00,12.8,3.9,30.20,WNW,290,3.5,0.0,67,0.00,CLR,,0.00,0.0,WeatherDisplay:10.37,2013-02-10 11:27:00,
2013-02-10 06:32:00,12.4,3.8,30.20,WNW,290,2.3,0.0,68,0.00,CLR,,0.00,0.0,WeatherDisplay:10.37,2013-02-10 11:32:00,
2013-02-10 06:37:00,12.1,4.2,30.20,WNW,290,0.0,0.0,70,0.00,CLR,,0.00,0.0,WeatherDisplay:10.37,2013-02-10 11:37:00,
2013-02-10 06:42:00,11.7,3.8,30.20,WNW,290,2.3,2.3,70,0.00,CLR,,0.00,0.0,WeatherDisplay:10.37,2013-02-10 11:42:00,
2013-02-10 06:47:00,11.4,3.5,30.20,WNW,290,2.3,2.3,70,0.00,CLR,,0.00,5.0,WeatherDisplay:10.37,2013-02-10 11:47:00,
2013-02-10 06:52:00,11.2,3.3,30.22,WNW,290,0.0,0.0,70,0.00,CLR,,0.00,9.0,WeatherDisplay:10.37,2013-02-10 11:52:00,
2013-02-10 06:57:00,10.8,2.9,30.22,WNW,290,0.0,0.0,70,0.00,CLR,,0.00,11.0,WeatherDisplay:10.37,2013-02-10 11:57:00,
2013-02-10 07:02:00,10.5,2.9,30.22,WNW,290,0.0,0.0,71,0.00,SCT,,0.00,12.0,WeatherDisplay:10.37,2013-02-10 12:02:00,
2013-02-10 07:07:00,10.1,2.6,30.22,WNW,290,0.0,0.0,71,0.00,BKN,,0.00,14.0,WeatherDisplay:10.37,2013-02-10 12:07:00,
2013-02-10 07:12:00,9.9,2.7,30.22,WNW,290,0.0,0.0,72,0.00,BKN,,0.00,18.0,WeatherDisplay:10.37,2013-02-10 12:12:00,
2013-02-10 07:17:00,9.7,2.5,30.22,WNW,290,0.0,0.0,72,0.00,BKN,,0.00,19.0,WeatherDisplay:10.37,2013-02-10 12:17:00,
2013-02-10 07:22:00,9.6,2.7,30.22,WNW,290,2.3,2.3,73,0.00,BKN,,0.00,21.0,WeatherDisplay:10.37,2013-02-10 12:22:00,
2013-02-10 07:27:00,9.5,2.6,30.22,WNW,290,2.0,2.0,73,0.00,BKN,,0.00,23.0,WeatherDisplay:10.37,2013-02-10 12:27:00,
2013-02-10 07:32:00,9.2,2.3,30.22,WNW,290,2.0,2.0,73,0.00,BKN,,0.00,39.0,WeatherDisplay:10.37,2013-02-10 12:32:00,
2013-02-10 07:37:00,8.7,1.5,30.22,WNW,290,2.3,0.0,72,0.00,BKN,,0.00,39.0,WeatherDisplay:10.37,2013-02-10 12:37:00,
2013-02-10 07:42:00,8.5,1.3,30.22,WNW,290,0.0,0.2,72,0.00,BKN,,0.00,39.0,WeatherDisplay:10.37,2013-02-10 12:42:00,
2013-02-10 07:47:00,8.3,1.1,30.22,WNW,290,0.0,0.0,72,0.00,BKN,,0.00,32.0,WeatherDisplay:10.37,2013-02-10 12:47:00,
2013-02-10 07:52:00,8.2,1.0,30.22,WNW,290,0.0,0.0,72,0.00,BKN,,0.00,32.0,WeatherDisplay:10.37,2013-02-10 12:52:00,
2013-02-10 07:57:00,8.2,1.0,30.22,WNW,290,0.0,0.0,72,0.00,BKN,,0.00,33.0,WeatherDisplay:10.37,2013-02-10 12:57:00,
2013-02-10 08:02:00,8.3,1.1,30.22,WNW,290,0.0,0.0,72,0.00,BKN,,0.00,35.0,WeatherDisplay:10.37,2013-02-10 13:02:00,
2013-02-10 08:07:00,8.6,1.7,30.23,WNW,290,0.0,0.0,73,0.00,BKN,,0.00,37.0,WeatherDisplay:10.37,2013-02-10 13:07:00,
2013-02-10 08:12:00,9.1,2.2,30.23,WNW,290,1.1,0.0,73,0.00,BKN,,0.00,93.0,WeatherDisplay:10.37,2013-02-10 13:12:00,
2013-02-10 08:17:00,11.2,4.2,30.23,WNW,290,0.0,0.0,73,0.00,CLR,,0.00,230.0,WeatherDisplay:10.37,2013-02-10 13:17:00,
2013-02-10 08:22:00,15.4,5.7,30.23,WNW,290,0.0,0.0,65,0.00,CLR,,0.00,241.0,WeatherDisplay:10.37,2013-02-10 13:22:00,
2013-02-10 08:27:00,15.8,6.4,30.23,WNW,290,0.0,0.0,66,0.00,CLR,,0.00,253.0,WeatherDisplay:10.37,2013-02-10 13:27:00,
2013-02-10 08:32:00,17.0,7.9,30.23,WNW,290,2.3,0.0,67,0.00,CLR,,0.00,265.0,WeatherDisplay:10.37,2013-02-10 13:32:00,
2013-02-10 08:38:00,19.5,8.2,30.24,WNW,290,0.0,0.0,61,0.00,CLR,,0.00,276.0,WeatherDisplay:10.37,2013-02-10 13:38:00,
2013-02-10 08:43:00,20.0,7.6,30.24,WNW,290,0.0,0.0,58,0.00,CLR,,0.00,287.0,WeatherDisplay:10.37,2013-02-10 13:43:00,
2013-02-10 08:48:00,21.5,6.6,30.24,WNW,290,0.0,0.0,52,0.00,CLR,,0.00,297.0,WeatherDisplay:10.37,2013-02-10 13:48:00,
2013-02-10 08:53:00,23.2,4.0,30.24,WNW,290,5.8,5.8,43,0.00,CLR,,0.00,308.0,WeatherDisplay:10.37,2013-02-10 13:53:00,
2013-02-10 08:58:00,23.6,2.8,30.24,WNW,290,3.5,3.5,40,0.00,CLR,,0.00,316.0,WeatherDisplay:10.37,2013-02-10 13:58:00,
2013-02-10 09:03:00,24.1,2.7,30.24,WNW,290,3.5,3.5,39,0.00,CLR,,0.00,325.0,WeatherDisplay:10.37,2013-02-10 14:03:00,
2013-02-10 09:08:00,24.7,2.1,30.24,WNW,299,4.6,4.6,37,0.00,CLR,,0.00,336.0,WeatherDisplay:10.37,2013-02-10 14:08:00,
2013-02-10 09:13:00,25.5,1.6,30.24,NW,306,4.6,4.6,35,0.00,CLR,,0.00,345.0,WeatherDisplay:10.37,2013-02-10 14:13:00,
2013-02-10 09:18:00,26.1,1.5,30.24,WNW,284,10.4,10.4,34,0.00,CLR,,0.00,353.0,WeatherDisplay:10.37,2013-02-10 14:18:00,
2013-02-10 09:23:00,26.1,0.9,30.25,WNW,298,11.5,11.5,33,0.00,CLR,,0.00,362.0,WeatherDisplay:10.37,2013-02-10 14:23:00,
2013-02-10 09:28:00,26.5,0.6,30.25,West,275,10.4,10.4,32,0.00,CLR,,0.00,371.0,WeatherDisplay:10.37,2013-02-10 14:28:00,
2013-02-10 09:33:00,26.8,0.2,30.25,WNW,295,11.5,11.5,31,0.00,CLR,,0.00,378.0,WeatherDisplay:10.37,2013-02-10 14:33:00,
2013-02-10 09:38:00,27.2,0.5,30.24,NW,310,6.9,6.9,31,0.00,CLR,,0.00,383.0,WeatherDisplay:10.37,2013-02-10 14:38:00,
2013-02-10 09:43:00,27.5,0.8,30.24,WNW,298,6.9,6.9,31,0.00,CLR,,0.00,390.0,WeatherDisplay:10.37,2013-02-10 14:43:00,
2013-02-10 09:48:00,27.9,0.4,30.24,West,270,9.2,9.2,30,0.00,CLR,,0.00,397.0,WeatherDisplay:10.37,2013-02-10 14:48:00,
2013-02-10 09:53:00,28.1,-0.1,30.24,NW,313,9.2,9.2,29,0.00,CLR,,0.00,404.0,WeatherDisplay:10.37,2013-02-10 14:53:00,
2013-02-10 09:58:00,28.4,0.9,30.24,WSW,256,9.2,9.2,30,0.00,CLR,,0.00,410.0,WeatherDisplay:10.37,2013-02-10 14:58:00,
2013-02-10 10:03:00,28.8,0.5,30.24,WSW,253,6.9,6.9,29,0.00,CLR,,0.00,415.0,WeatherDisplay:10.37,2013-02-10 15:03:00,
2013-02-10 10:08:00,28.8,-0.3,30.25,West,262,6.9,6.9,28,0.00,CLR,,0.00,422.0,WeatherDisplay:10.37,2013-02-10 15:08:00,
2013-02-10 10:13:00,28.8,-0.3,30.25,SW,225,9.2,9.2,28,0.00,CLR,,0.00,425.0,WeatherDisplay:10.37,2013-02-10 15:13:00,
2013-02-10 10:18:00,28.6,-0.4,30.25,NW,310,10.4,10.4,28,0.00,CLR,,0.00,429.0,WeatherDisplay:10.37,2013-02-10 15:18:00,
2013-02-10 10:23:00,28.8,-0.3,30.26,WNW,298,9.0,9.0,28,0.00,CLR,,0.00,432.0,WeatherDisplay:10.37,2013-02-10 15:23:00,
2013-02-10 10:28:00,28.8,-1.0,30.26,WNW,299,13.8,13.8,27,0.00,CLR,,0.00,438.0,WeatherDisplay:10.37,2013-02-10 15:28:00,
2013-02-10 10:33:00,29.0,-0.9,30.26,West,269,11.5,11.5,27,0.00,CLR,,0.00,441.0,WeatherDisplay:10.37,2013-02-10 15:33:00,
2013-02-10 10:38:00,29.4,-0.5,30.27,WNW,294,12.7,12.7,27,0.00,CLR,,0.00,445.0,WeatherDisplay:10.37,2013-02-10 15:38:00,
2013-02-10 10:43:00,29.5,-0.4,30.27,WNW,292,9.2,9.2,27,0.00,CLR,,0.00,448.0,WeatherDisplay:10.37,2013-02-10 15:43:00,
2013-02-10 10:48:00,30.1,0.9,30.27,WNW,303,6.0,6.0,28,0.00,CLR,,0.00,450.0,WeatherDisplay:10.37,2013-02-10 15:48:00,
2013-02-10 10:53:00,30.5,0.4,30.27,WNW,292,11.5,11.5,27,0.00,CLR,,0.00,450.0,WeatherDisplay:10.37,2013-02-10 15:53:00,
2013-02-10 10:58:00,30.8,-0.1,30.27,West,267,11.5,11.5,26,0.00,CLR,,0.00,454.0,WeatherDisplay:10.37,2013-02-10 15:58:00,
2013-02-10 11:03:00,30.9,0.0,30.27,WNW,303,12.0,12.0,26,0.00,CLR,,0.00,454.0,WeatherDisplay:10.37,2013-02-10 16:03:00,
2013-02-10 11:08:00,31.0,0.9,30.26,WNW,290,6.9,6.9,27,0.00,CLR,,0.00,455.0,WeatherDisplay:10.37,2013-02-10 16:08:00,
2013-02-10 11:13:00,31.1,1.0,30.26,WNW,282,9.2,9.2,27,0.00,CLR,,0.00,455.0,WeatherDisplay:10.37,2013-02-10 16:13:00,
2013-02-10 11:18:00,31.4,1.2,30.26,WNW,287,11.5,11.5,27,0.00,CLR,,0.00,455.0,WeatherDisplay:10.37,2013-02-10 16:18:00,
2013-02-10 11:23:00,31.6,1.4,30.25,WNW,288,16.1,16.1,27,0.00,CLR,,0.00,457.0,WeatherDisplay:10.37,2013-02-10 16:23:00,
2013-02-10 11:28:00,31.7,3.0,30.25,WNW,290,13.8,13.8,29,0.00,CLR,,0.00,455.0,WeatherDisplay:10.37,2013-02-10 16:28:00,
2013-02-10 11:33:00,31.7,1.5,30.25,WNW,282,15.0,15.0,27,0.00,CLR,,0.00,455.0,WeatherDisplay:10.37,2013-02-10 16:33:00,
2013-02-10 11:38:00,32.1,1.0,30.25,WNW,296,13.8,13.8,26,0.00,CLR,,0.00,455.0,WeatherDisplay:10.37,2013-02-10 16:38:00,
2013-02-10 11:43:00,32.3,0.3,30.25,NW,304,13.8,13.8,25,0.00,CLR,,0.00,452.0,WeatherDisplay:10.37,2013-02-10 16:43:00,
2013-02-10 11:48:00,32.4,1.3,30.25,WNW,296,7.0,7.0,26,0.00,CLR,,0.00,438.0,WeatherDisplay:10.37,2013-02-10 16:48:00,
2013-02-10 11:53:00,32.8,0.8,30.25,WNW,301,10.0,10.0,25,0.00,SCT,,0.00,306.0,WeatherDisplay:10.37,2013-02-10 16:53:00,
2013-02-10 11:58:00,33.0,1.8,30.25,WNW,301,5.8,5.8,26,0.00,SCT,,0.00,283.0,WeatherDisplay:10.37,2013-02-10 16:58:00,
2013-02-10 12:03:00,33.5,1.4,30.25,WNW,284,3.5,3.5,25,0.00,FEW,,0.00,390.0,WeatherDisplay:10.37,2013-02-10 17:03:00,
2013-02-10 12:08:00,33.8,0.8,30.25,West,264,9.2,9.2,24,0.00,SCT,,0.00,316.0,WeatherDisplay:10.37,2013-02-10 17:08:00,
2013-02-10 12:13:00,33.6,0.6,30.25,WNW,295,9.0,9.0,24,0.00,SCT,,0.00,316.0,WeatherDisplay:10.37,2013-02-10 17:13:00,
2013-02-10 12:18:00,33.4,0.4,30.25,WNW,296,11.5,11.5,24,0.00,SCT,,0.00,325.0,WeatherDisplay:10.37,2013-02-10 17:18:00,
2013-02-10 12:23:00,33.1,2.7,30.25,NW,315,5.8,5.8,27,0.00,BKN,,0.00,121.0,WeatherDisplay:10.37,2013-02-10 17:23:00,
2013-02-10 12:28:00,33.7,3.2,30.25,WNW,294,10.4,10.4,27,0.00,BKN,,0.00,135.0,WeatherDisplay:10.37,2013-02-10 17:28:00,
2013-02-10 12:33:00,34.3,2.1,30.25,WNW,302,5.8,5.8,25,0.00,BKN,,0.00,141.0,WeatherDisplay:10.37,2013-02-10 17:33:00,
2013-02-10 12:38:00,34.2,4.4,30.25,WNW,292,2.3,2.3,28,0.00,BKN,,0.00,132.0,WeatherDisplay:10.37,2013-02-10 17:38:00,
2013-02-10 12:43:00,34.4,3.0,30.25,NW,325,6.0,6.0,26,0.00,BKN,,0.00,162.0,WeatherDisplay:10.37,2013-02-10 17:43:00,
2013-02-10 12:48:00,34.4,1.3,30.25,WNW,296,4.6,4.6,24,0.00,BKN,,0.00,163.0,WeatherDisplay:10.37,2013-02-10 17:48:00,
2013-02-10 12:53:00,33.9,4.2,30.25,NW,311,6.9,6.9,28,0.00,BKN,,0.00,169.0,WeatherDisplay:10.37,2013-02-10 17:53:00,
2013-02-10 12:58:00,33.3,3.6,30.25,WNW,303,7.0,7.0,28,0.00,BKN,,0.00,160.0,WeatherDisplay:10.37,2013-02-10 17:58:00,
2013-02-10 13:03:00,33.0,1.8,30.25,NW,319,9.2,9.2,26,0.00,BKN,,0.00,153.0,WeatherDisplay:10.37,2013-02-10 18:03:00,
2013-02-10 13:08:00,32.9,4.8,30.25,WNW,298,5.0,5.0,30,0.00,BKN,,0.00,160.0,WeatherDisplay:10.37,2013-02-10 18:08:00,
2013-02-10 13:13:00,32.8,4.7,30.25,WNW,296,6.0,6.0,30,0.00,BKN,,0.00,149.0,WeatherDisplay:10.37,2013-02-10 18:13:00,
2013-02-10 13:18:00,32.8,4.7,30.25,WNW,297,4.0,4.0,30,0.00,BKN,,0.00,163.0,WeatherDisplay:10.37,2013-02-10 18:18:00,
2013-02-10 13:23:00,32.7,4.6,30.24,WNW,297,6.0,6.0,30,0.00,BKN,,0.00,213.0,WeatherDisplay:10.37,2013-02-10 18:23:00,
2013-02-10 13:28:00,32.8,5.4,30.24,WNW,296,5.8,5.8,31,0.00,SCT,,0.00,329.0,WeatherDisplay:10.37,2013-02-10 18:28:00,
2013-02-10 13:33:00,32.8,4.0,30.24,WNW,297,4.6,4.6,29,0.00,FEW,,0.00,380.0,WeatherDisplay:10.37,2013-02-10 18:33:00,
2013-02-10 13:38:00,33.5,3.8,30.24,WNW,296,6.9,6.9,28,0.00,CLR,,0.00,383.0,WeatherDisplay:10.37,2013-02-10 18:38:00,
2013-02-10 13:43:00,33.9,2.6,30.24,WNW,296,4.0,4.4,26,0.00,CLR,,0.00,360.0,WeatherDisplay:10.37,2013-02-10 18:43:00,
2013-02-10 13:48:00,33.5,6.0,30.24,WNW,296,3.5,3.5,31,0.00,BKN,,0.00,179.0,WeatherDisplay:10.37,2013-02-10 18:48:00,
2013-02-10 13:53:00,33.7,3.2,30.23,WNW,297,3.5,3.6,27,0.00,BKN,,0.00,167.0,WeatherDisplay:10.37,2013-02-10 18:53:00,
2013-02-10 13:58:00,34.0,2.6,30.23,WNW,296,5.8,5.8,26,0.00,SCT,,0.00,178.0,WeatherDisplay:10.37,2013-02-10 18:58:00,
2013-02-10 14:03:00,34.1,2.7,30.23,WNW,296,0.0,0.0,26,0.00,BKN,,0.00,176.0,WeatherDisplay:10.37,2013-02-10 19:03:00,
2013-02-10 14:08:00,33.7,7.6,30.22,WNW,297,4.6,4.6,33,0.00,BKN,,0.00,139.0,WeatherDisplay:10.37,2013-02-10 19:08:00,
2013-02-10 14:13:00,34.2,2.8,30.22,WNW,296,3.5,3.5,26,0.00,BKN,,0.00,178.0,WeatherDisplay:10.37,2013-02-10 19:13:00,
2013-02-10 14:18:00,34.7,1.5,30.22,WNW,296,4.0,4.0,24,0.00,BKN,,0.00,149.0,WeatherDisplay:10.37,2013-02-10 19:18:00,
2013-02-10 14:23:00,34.6,3.2,30.22,WNW,297,0.0,0.0,26,0.00,BKN,,0.00,118.0,WeatherDisplay:10.37,2013-02-10 19:23:00,
2013-02-10 14:28:00,35.0,1.8,30.22,WNW,297,1.1,1.1,24,0.00,BKN,,0.00,84.0,WeatherDisplay:10.37,2013-02-10 19:28:00,
2013-02-10 14:34:00,35.1,0.9,30.22,WNW,296,3.5,3.5,23,0.00,BKN,,0.00,63.0,WeatherDisplay:10.37,2013-02-10 19:34:00,
2013-02-10 14:39:00,34.2,2.8,30.23,WNW,297,3.5,3.5,26,0.00,BKN,,0.00,51.0,WeatherDisplay:10.37,2013-02-10 19:39:00,
2013-02-10 14:44:00,33.7,5.5,30.23,WNW,296,4.0,4.0,30,0.00,BKN,,0.00,44.0,WeatherDisplay:10.37,2013-02-10 19:44:00,
2013-02-10 14:49:00,33.2,4.3,30.23,WNW,296,4.6,4.6,29,0.00,BKN,,0.00,42.0,WeatherDisplay:10.37,2013-02-10 19:49:00,
2013-02-10 14:54:00,33.0,6.3,30.22,WNW,297,7.0,7.0,32,0.00,BKN,,0.00,46.0,WeatherDisplay:10.37,2013-02-10 19:54:00,
2013-02-10 14:59:00,32.4,5.1,30.22,WNW,296,6.9,6.9,31,0.00,BKN,,0.00,53.0,WeatherDisplay:10.37,2013-02-10 19:59:00,
2013-02-10 15:04:00,32.0,6.1,30.22,WNW,297,5.8,5.8,33,0.00,BKN,,0.00,81.0,WeatherDisplay:10.37,2013-02-10 20:04:00,
2013-02-10 15:09:00,32.1,4.8,30.22,WNW,296,5.8,5.8,31,0.00,BKN,,0.00,70.0,WeatherDisplay:10.37,2013-02-10 20:09:00,
2013-02-10 15:14:00,33.0,3.4,30.22,WNW,302,5.8,5.8,28,0.00,BKN,,0.00,76.0,WeatherDisplay:10.37,2013-02-10 20:14:00,
2013-02-10 15:19:00,33.3,4.4,30.22,WNW,302,4.6,4.6,29,0.00,BKN,,0.00,67.0,WeatherDisplay:10.37,2013-02-10 20:19:00,
2013-02-10 15:24:00,33.9,2.6,30.23,West,280,4.6,4.6,26,0.00,BKN,,0.00,62.0,WeatherDisplay:10.37,2013-02-10 20:24:00,
2013-02-10 15:29:00,34.0,2.6,30.23,WNW,299,4.0,4.0,26,0.00,BKN,,0.00,56.0,WeatherDisplay:10.37,2013-02-10 20:29:00,
2013-02-10 15:34:00,34.3,2.9,30.23,WNW,299,3.5,3.5,26,0.00,BKN,,0.00,53.0,WeatherDisplay:10.37,2013-02-10 20:34:00,
2013-02-10 15:39:00,34.2,5.2,30.23,WNW,300,2.3,2.3,29,0.00,BKN,,0.00,53.0,WeatherDisplay:10.37,2013-02-10 20:39:00,
2013-02-10 15:44:00,33.8,4.8,30.23,WNW,300,3.5,3.5,29,0.00,BKN,,0.00,49.0,WeatherDisplay:10.37,2013-02-10 20:44:00,
2013-02-10 15:49:00,33.0,4.9,30.23,WNW,300,2.3,2.3,30,0.00,BKN,,0.00,47.0,WeatherDisplay:10.37,2013-02-10 20:49:00,
2013-02-10 15:54:00,32.8,6.8,30.24,WNW,299,3.5,3.5,33,0.00,BKN,,0.00,35.0,WeatherDisplay:10.37,2013-02-10 20:54:00,
2013-02-10 15:59:00,32.6,10.3,30.24,WNW,300,0.0,0.0,39,0.00,BKN,,0.00,28.0,WeatherDisplay:10.37,2013-02-10 20:59:00,
2013-02-10 16:04:00,31.8,10.7,30.24,WNW,300,0.0,0.0,41,0.00,BKN,,0.00,26.0,WeatherDisplay:10.37,2013-02-10 21:04:00,
2013-02-10 16:09:00,30.8,12.4,30.24,WNW,299,0.0,0.0,46,0.00,BKN,,0.00,26.0,WeatherDisplay:10.37,2013-02-10 21:09:00,
2013-02-10 16:14:00,30.2,11.9,30.24,WNW,300,0.0,0.0,46,0.00,BKN,,0.00,23.0,WeatherDisplay:10.37,2013-02-10 21:14:00,
2013-02-10 16:19:00,30.1,10.8,30.24,WNW,300,0.0,0.0,44,0.00,BKN,,0.00,25.0,WeatherDisplay:10.37,2013-02-10 21:19:00,
2013-02-10 16:24:00,29.5,12.7,30.24,WNW,299,0.0,0.0,49,0.00,BKN,,0.00,21.0,WeatherDisplay:10.37,2013-02-10 21:24:00,
2013-02-10 16:29:00,29.2,12.8,30.24,WNW,300,0.0,0.0,50,0.00,BKN,,0.00,19.0,WeatherDisplay:10.37,2013-02-10 21:29:00,
2013-02-10 16:34:00,28.8,12.9,30.24,WNW,300,0.0,0.0,51,0.00,BKN,,0.00,16.0,WeatherDisplay:10.37,2013-02-10 21:34:00,
2013-02-10 16:39:00,27.8,16.1,30.24,WNW,299,0.0,0.0,61,0.00,BKN,,0.00,14.0,WeatherDisplay:10.37,2013-02-10 21:39:00,
2013-02-10 16:44:00,27.0,16.4,30.24,WNW,300,0.0,0.0,64,0.00,BKN,,0.00,14.0,WeatherDisplay:10.37,2013-02-10 21:44:00,
2013-02-10 16:49:00,26.3,16.1,30.24,WNW,300,0.0,0.0,65,0.00,BKN,,0.00,12.0,WeatherDisplay:10.37,2013-02-10 21:49:00,
2013-02-10 16:54:00,25.5,14.6,30.26,WNW,300,0.0,0.0,63,0.00,SCT,,0.00,11.0,WeatherDisplay:10.37,2013-02-10 21:54:00,
2013-02-10 16:59:00,24.9,13.0,30.26,WNW,300,0.0,0.0,60,0.00,FEW,,0.00,9.0,WeatherDisplay:10.37,2013-02-10 21:59:00,
2013-02-10 17:04:00,24.5,13.7,30.26,WNW,300,0.0,0.0,63,0.00,CLR,,0.00,7.0,WeatherDisplay:10.37,2013-02-10 22:04:00,
2013-02-10 17:09:00,24.7,15.3,30.26,WNW,299,0.0,0.0,67,0.00,CLR,,0.00,5.0,WeatherDisplay:10.37,2013-02-10 22:09:00,
2013-02-10 17:14:00,24.2,14.8,30.26,WNW,300,0.0,0.0,67,0.00,CLR,,0.00,0.0,WeatherDisplay:10.37,2013-02-10 22:14:00,
2013-02-10 17:19:00,23.1,13.1,30.26,WNW,300,0.0,0.0,65,0.00,CLR,,0.00,0.0,WeatherDisplay:10.37,2013-02-10 22:19:00,
2013-02-10 17:24:00,22.0,11.7,30.26,WNW,299,0.0,0.0,64,0.00,CLR,,0.00,0.0,WeatherDisplay:10.37,2013-02-10 22:24:00,
2013-02-10 17:29:00,21.7,12.8,30.26,WNW,300,0.0,0.0,68,0.00,CLR,,0.00,0.0,WeatherDisplay:10.37,2013-02-10 22:29:00,
2013-02-10 17:34:00,22.3,13.0,30.26,WNW,299,0.0,0.0,67,0.00,CLR,,0.00,0.0,WeatherDisplay:10.37,2013-02-10 22:34:00,
2013-02-10 17:39:00,22.8,13.5,30.26,WNW,299,0.0,0.0,67,0.00,CLR,,0.00,0.0,WeatherDisplay:10.37,2013-02-10 22:39:00,
2013-02-10 17:44:00,22.4,13.4,30.26,WNW,300,0.0,0.0,68,0.00,CLR,,0.00,0.0,WeatherDisplay:10.37,2013-02-10 22:44:00,
2013-02-10 17:49:00,21.5,12.6,30.26,WNW,300,0.0,0.0,68,0.00,CLR,,0.00,0.0,WeatherDisplay:10.37,2013-02-10 22:49:00,
2013-02-10 17:54:00,22.4,13.8,30.26,WNW,299,0.0,0.0,69,0.00,CLR,,0.00,0.0,WeatherDisplay:10.37,2013-02-10 22:54:00,
2013-02-10 17:59:00,21.7,14.4,30.26,WNW,300,0.0,0.0,73,0.00,CLR,,0.00,0.0,WeatherDisplay:10.37,2013-02-10 22:59:00,
2013-02-10 18:04:00,21.4,13.5,30.26,WNW,299,0.0,0.0,71,0.00,CLR,,0.00,0.0,WeatherDisplay:10.37,2013-02-10 23:04:00,
2013-02-10 18:09:00,20.3,12.7,30.27,WNW,299,0.0,0.0,72,0.00,CLR,,0.00,0.0,WeatherDisplay:10.37,2013-02-10 23:09:00,
2013-02-10 18:14:00,20.0,13.0,30.27,WNW,300,0.0,0.0,74,0.00,CLR,,0.00,0.0,WeatherDisplay:10.37,2013-02-10 23:14:00,
2013-02-10 18:19:00,19.5,12.3,30.27,WNW,300,0.0,0.0,73,0.00,CLR,,0.00,0.0,WeatherDisplay:10.37,2013-02-10 23:19:00,
2013-02-10 18:24:00,19.7,11.8,30.28,WNW,299,0.0,0.0,71,0.00,CLR,,0.00,0.0,WeatherDisplay:10.37,2013-02-10 23:24:00,
2013-02-10 18:29:00,19.0,11.8,30.28,WNW,300,0.0,0.0,73,0.00,CLR,,0.00,0.0,WeatherDisplay:10.37,2013-02-10 23:29:00,
2013-02-10 18:34:00,18.3,11.7,30.28,WNW,300,0.0,0.0,75,0.00,CLR,,0.00,0.0,WeatherDisplay:10.37,2013-02-10 23:34:00,
2013-02-10 18:39:00,17.2,10.9,30.28,WNW,299,0.0,0.0,76,0.00,CLR,,0.00,0.0,WeatherDisplay:10.37,2013-02-10 23:39:00,
2013-02-10 18:44:00,18.5,11.9,30.28,WNW,300,0.0,0.0,75,0.00,CLR,,0.00,0.0,WeatherDisplay:10.37,2013-02-10 23:44:00,
2013-02-10 18:49:00,18.7,12.4,30.28,WNW,299,0.0,0.0,76,0.00,CLR,,0.00,0.0,WeatherDisplay:10.37,2013-02-10 23:49:00,
2013-02-10 18:54:00,17.9,12.2,30.27,WNW,300,0.0,0.0,78,0.00,CLR,,0.00,0.0,WeatherDisplay:10.37,2013-02-10 23:54:00,
2013-02-10 18:59:00,17.3,11.6,30.27,WNW,300,0.0,0.0,78,0.00,CLR,,0.00,0.0,WeatherDisplay:10.37,2013-02-10 23:59:00,
2013-02-10 19:04:00,17.1,11.4,30.27,WNW,299,0.0,0.0,78,0.00,CLR,,0.00,0.0,WeatherDisplay:10.37,2013-02-11 00:04:00,
2013-02-10 19:09:00,15.8,10.2,30.27,WNW,300,0.0,0.0,78,0.00,CLR,,0.00,0.0,WeatherDisplay:10.37,2013-02-11 00:09:00,
2013-02-10 19:14:00,15.6,10.5,30.27,WNW,300,0.0,0.0,80,0.00,CLR,,0.00,0.0,WeatherDisplay:10.37,2013-02-11 00:14:00,
2013-02-10 19:19:00,15.1,10.3,30.27,WNW,299,0.0,0.0,81,0.00,CLR,,0.00,0.0,WeatherDisplay:10.37,2013-02-11 00:19:00,
2013-02-10 19:24:00,15.4,10.6,30.27,WNW,300,0.0,0.0,81,0.00,CLR,,0.00,0.0,WeatherDisplay:10.37,2013-02-11 00:24:00,
2013-02-10 19:29:00,15.7,10.9,30.27,WNW,300,0.0,0.0,81,0.00,CLR,,0.00,0.0,WeatherDisplay:10.37,2013-02-11 00:29:00,
2013-02-10 19:34:00,16.4,11.3,30.27,WNW,299,0.0,0.0,80,0.00,CLR,,0.00,0.0,WeatherDisplay:10.37,2013-02-11 00:34:00,
2013-02-10 19:39:00,16.6,11.5,30.27,WNW,300,0.0,0.0,80,0.00,CLR,,0.00,0.0,WeatherDisplay:10.37,2013-02-11 00:39:00,
2013-02-10 19:44:00,15.7,10.6,30.27,WNW,300,0.0,0.0,80,0.00,CLR,,0.00,0.0,WeatherDisplay:10.37,2013-02-11 00:44:00,
2013-02-10 19:49:00,16.1,11.0,30.27,WNW,299,0.0,0.0,80,0.00,CLR,,0.00,0.0,WeatherDisplay:10.37,2013-02-11 00:49:00,
2013-02-10 19:54:00,16.4,11.0,30.28,WNW,300,0.0,0.0,79,0.00,CLR,,0.00,0.0,WeatherDisplay:10.37,2013-02-11 00:54:00,
2013-02-10 19:59:00,15.7,10.6,30.28,WNW,299,0.0,0.0,80,0.00,CLR,,0.00,0.0,WeatherDisplay:10.37,2013-02-11 00:59:00,
2013-02-10 20:04:00,15.1,10.3,30.28,WNW,299,0.0,0.0,81,0.00,CLR,,0.00,0.0,WeatherDisplay:10.37,2013-02-11 01:04:00,
2013-02-10 20:09:00,14.4,9.6,30.27,WNW,300,0.0,0.0,81,0.00,CLR,,0.00,0.0,WeatherDisplay:10.37,2013-02-11 01:09:00,
2013-02-10 20:14:00,13.4,8.9,30.27,WNW,300,0.0,0.0,82,0.00,CLR,,0.00,0.0,WeatherDisplay:10.37,2013-02-11 01:14:00,
2013-02-10 20:19:00,13.2,9.0,30.27,WNW,300,0.0,0.0,83,0.00,CLR,,0.00,0.0,WeatherDisplay:10.37,2013-02-11 01:19:00,
2013-02-10 20:24:00,13.3,9.4,30.26,WNW,300,0.0,0.0,84,0.00,CLR,,0.00,0.0,WeatherDisplay:10.37,2013-02-11 01:24:00,
2013-02-10 20:29:00,13.3,9.4,30.26,WNW,300,0.0,0.0,84,0.00,CLR,,0.00,0.0,WeatherDisplay:10.37,2013-02-11 01:29:00,
2013-02-10 20:34:00,12.9,8.7,30.26,WNW,300,0.0,0.0,83,0.00,CLR,,0.00,0.0,WeatherDisplay:10.37,2013-02-11 01:34:00,
2013-02-10 20:39:00,12.0,8.1,30.27,WNW,300,0.0,0.0,84,0.00,CLR,,0.00,0.0,WeatherDisplay:10.37,2013-02-11 01:39:00,
2013-02-10 20:44:00,11.7,8.1,30.27,WNW,300,0.0,0.0,85,0.00,CLR,,0.00,0.0,WeatherDisplay:10.37,2013-02-11 01:44:00,
2013-02-10 20:50:00,12.2,8.6,30.27,WNW,299,0.0,0.0,85,0.00,CLR,,0.00,0.0,WeatherDisplay:10.37,2013-02-11 01:50:00,
2013-02-10 20:55:00,12.7,9.0,30.26,WNW,300,0.0,0.0,85,0.00,CLR,,0.00,0.0,WeatherDisplay:10.37,2013-02-11 01:55:00,
2013-02-10 21:00:00,12.2,8.3,30.26,WNW,300,0.0,0.0,84,0.00,CLR,,0.00,0.0,WeatherDisplay:10.37,2013-02-11 02:00:00,
2013-02-10 21:05:00,11.7,8.1,30.26,WNW,300,0.0,0.0,85,0.00,CLR,,0.00,0.0,WeatherDisplay:10.37,2013-02-11 02:05:00,
2013-02-10 21:10:00,12.0,8.4,30.26,WNW,300,0.0,0.0,85,0.00,CLR,,0.00,0.0,WeatherDisplay:10.37,2013-02-11 02:10:00,
2013-02-10 21:15:00,12.3,8.7,30.26,WNW,300,0.0,0.0,85,0.00,CLR,,0.00,0.0,WeatherDisplay:10.37,2013-02-11 02:15:00,
2013-02-10 21:20:00,12.5,8.6,30.26,WNW,300,0.0,0.0,84,0.00,CLR,,0.00,0.0,WeatherDisplay:10.37,2013-02-11 02:20:00,
2013-02-10 21:25:00,11.8,7.9,30.26,WNW,300,0.0,0.0,84,0.00,CLR,,0.00,0.0,WeatherDisplay:10.37,2013-02-11 02:25:00,
2013-02-10 21:30:00,11.1,7.2,30.26,WNW,300,0.0,0.0,84,0.00,CLR,,0.00,0.0,WeatherDisplay:10.37,2013-02-11 02:30:00,
2013-02-10 21:35:00,11.4,7.8,30.26,WNW,300,0.0,0.0,85,0.00,CLR,,0.00,0.0,WeatherDisplay:10.37,2013-02-11 02:35:00,
2013-02-10 21:40:00,11.9,8.3,30.26,WNW,300,0.0,0.0,85,0.00,CLR,,0.00,0.0,WeatherDisplay:10.37,2013-02-11 02:40:00,
2013-02-10 21:45:00,11.3,7.7,30.26,WNW,300,0.0,0.0,85,0.00,CLR,,0.00,0.0,WeatherDisplay:10.37,2013-02-11 02:45:00,
2013-02-10 21:50:00,10.8,7.2,30.26,WNW,299,0.0,0.0,85,0.00,CLR,,0.00,0.0,WeatherDisplay:10.37,2013-02-11 02:50:00,
2013-02-10 21:55:00,11.4,8.0,30.26,WNW,299,0.0,0.0,86,0.00,CLR,,0.00,0.0,WeatherDisplay:10.37,2013-02-11 02:55:00,
2013-02-10 22:00:00,11.5,8.1,30.26,WNW,300,0.0,0.0,86,0.00,CLR,,0.00,0.0,WeatherDisplay:10.37,2013-02-11 03:00:00,
2013-02-10 22:05:00,10.7,7.1,30.26,WNW,300,0.0,0.0,85,0.00,CLR,,0.00,0.0,WeatherDisplay:10.37,2013-02-11 03:05:00,
2013-02-10 22:10:00,10.3,6.9,30.26,WNW,300,0.0,0.0,86,0.00,CLR,,0.00,0.0,WeatherDisplay:10.37,2013-02-11 03:10:00,
2013-02-10 22:15:00,10.4,7.3,30.26,WNW,299,0.0,0.0,87,0.00,CLR,,0.00,0.0,WeatherDisplay:10.37,2013-02-11 03:15:00,
2013-02-10 22:20:00,10.2,6.8,30.26,WNW,299,0.0,0.0,86,0.00,CLR,,0.00,0.0,WeatherDisplay:10.37,2013-02-11 03:20:00,
2013-02-10 22:25:00,9.9,6.6,30.26,WNW,299,0.0,0.0,86,0.00,CLR,,0.00,0.0,WeatherDisplay:10.37,2013-02-11 03:25:00,
2013-02-10 22:30:00,9.6,6.5,30.26,WNW,300,0.0,0.0,87,0.00,CLR,,0.00,0.0,WeatherDisplay:10.37,2013-02-11 03:30:00,
2013-02-10 22:35:00,9.4,6.3,30.26,WNW,299,0.0,0.0,87,0.00,CLR,,0.00,0.0,WeatherDisplay:10.37,2013-02-11 03:35:00,
2013-02-10 22:40:00,9.0,5.9,30.26,WNW,300,0.0,0.0,87,0.00,CLR,,0.00,0.0,WeatherDisplay:10.37,2013-02-11 03:40:00,
2013-02-10 22:45:00,8.7,5.6,30.26,WNW,300,0.0,0.0,87,0.00,CLR,,0.00,0.0,WeatherDisplay:10.37,2013-02-11 03:45:00,
2013-02-10 22:50:00,8.2,5.1,30.26,WNW,300,0.0,0.0,87,0.00,CLR,,0.00,0.0,WeatherDisplay:10.37,2013-02-11 03:50:00,
2013-02-10 22:55:00,7.6,4.5,30.26,WNW,299,0.0,0.0,87,0.00,CLR,,0.00,0.0,WeatherDisplay:10.37,2013-02-11 03:55:00,
2013-02-10 23:00:00,8.4,5.6,30.26,WNW,300,0.0,0.0,88,0.00,CLR,,0.00,0.0,WeatherDisplay:10.37,2013-02-11 04:00:00,
2013-02-10 23:05:00,9.3,6.5,30.26,WNW,299,0.0,0.0,88,0.00,CLR,,0.00,0.0,WeatherDisplay:10.37,2013-02-11 04:05:00,
2013-02-10 23:10:00,9.3,6.2,30.26,WNW,299,0.0,0.0,87,0.00,CLR,,0.00,0.0,WeatherDisplay:10.37,2013-02-11 04:10:00,
2013-02-10 23:15:00,9.0,6.2,30.26,WNW,300,0.0,0.0,88,0.00,CLR,,0.00,0.0,WeatherDisplay:10.37,2013-02-11 04:15:00,
2013-02-10 23:20:00,8.3,5.2,30.26,WNW,300,0.0,0.0,87,0.00,CLR,,0.00,0.0,WeatherDisplay:10.37,2013-02-11 04:20:00,
2013-02-10 23:25:00,8.4,5.3,30.26,WNW,299,0.0,0.0,87,0.00,CLR,,0.00,0.0,WeatherDisplay:10.37,2013-02-11 04:25:00,
2013-02-10 23:30:00,8.4,5.3,30.26,WNW,300,0.0,0.0,87,0.00,CLR,,0.00,0.0,WeatherDisplay:10.37,2013-02-11 04:30:00,
2013-02-10 23:35:00,6.9,3.6,30.26,WNW,300,0.0,0.0,86,0.00,CLR,,0.00,0.0,WeatherDisplay:10.37,2013-02-11 04:35:00,
2013-02-10 23:40:00,5.8,2.5,30.27,WNW,299,0.0,0.0,86,0.00,CLR,,0.00,0.0,WeatherDisplay:10.37,2013-02-11 04:40:00,
2013-02-10 23:45:00,6.3,3.3,30.27,WNW,300,0.0,0.0,87,0.00,CLR,,0.00,0.0,WeatherDisplay:10.37,2013-02-11 04:45:00,
2013-02-10 23:50:00,7.3,4.5,30.27,WNW,299,0.0,0.0,88,0.00,CLR,,0.00,0.0,WeatherDisplay:10.37,2013-02-11 04:50:00,
2013-02-10 23:55:00,6.6,3.6,30.26,WNW,300,0.0,0.0,87,0.00,CLR,,0.00,0.0,WeatherDisplay:10.37,2013-02-11 04:55:00,